Time;durP1;ratioP1;P1;durP2;ratioP2;P2;SDS_P1;SDS_P2;PMS_P1;PMS_P2;Temp;Humidity;BMP_temperature;BMP_pressure;BME280_temperature;BME280_humidity;BME280_pressure;Samples;Min_cycle;Max_cycle;Signal;HPM_P1;HPM_P2
2021/08/05 00:01:50;;;;;;;9.50;4.07;;;16.70;79.30;;;;;;5017465;28;20030;-85
2021/08/05 00:04:15;;;;;;;8.70;4.72;;;16.70;79.90;;;;;;5016366;28;20291;-85
2021/08/05 00:06:41;;;;;;;9.18;4.68;;;16.70;79.90;;;;;;5016465;28;20029;-84
2021/08/05 00:09:07;;;;;;;9.07;5.18;;;16.70;79.90;;;;;;5027992;28;20030;-84
2021/08/05 00:11:33;;;;;;;6.72;4.55;;;16.60;80.70;;;;;;5015494;28;20048;-85
2021/08/05 00:13:59;;;;;;;7.35;4.32;;;16.60;80.20;;;;;;5030216;28;20056;-85
2021/08/05 00:16:25;;;;;;;10.38;4.53;;;16.60;80.40;;;;;;5033871;28;20025;-83
2021/08/05 00:18:51;;;;;;;9.38;4.43;;;16.60;80.40;;;;;;5033711;28;20087;-83
2021/08/05 00:21:18;;;;;;;15.57;4.63;;;16.60;80.50;;;;;;5035861;28;20045;-82
2021/08/05 00:23:44;;;;;;;13.83;5.60;;;16.50;80.70;;;;;;5044866;28;20109;-84
2021/08/05 00:26:11;;;;;;;9.27;4.63;;;16.50;80.70;;;;;;5037003;28;20029;-84
2021/08/05 00:28:37;;;;;;;6.75;4.80;;;16.50;80.80;;;;;;5033304;28;20052;-82
2021/08/05 00:31:04;;;;;;;8.75;4.57;;;16.50;80.80;;;;;;5048173;28;20025;-82
2021/08/05 00:33:31;;;;;;;7.15;4.15;;;16.50;80.90;;;;;;5043753;28;20017;-83
2021/08/05 00:35:57;;;;;;;6.10;4.43;;;16.40;81.00;;;;;;5033468;28;20064;-83
2021/08/05 00:38:23;;;;;;;15.85;4.53;;;16.50;81.30;;;;;;5039316;28;20078;-84
2021/08/05 00:40:49;;;;;;;13.77;4.80;;;16.40;81.50;;;;;;5053195;28;20428;-84
2021/08/05 00:43:15;;;;;;;7.68;4.35;;;16.40;81.90;;;;;;5039066;28;20435;-81
2021/08/05 00:45:41;;;;;;;10.35;4.85;;;16.40;82.00;;;;;;5043706;28;20105;-83
2021/08/05 00:48:07;;;;;;;9.30;4.68;;;16.40;82.60;;;;;;5034624;28;20052;-82
2021/08/05 00:50:33;;;;;;;8.52;4.63;;;16.40;82.00;;;;;;5044511;28;20021;-82
2021/08/05 00:52:59;;;;;;;6.93;4.05;;;16.40;82.20;;;;;;5033375;28;20018;-82
2021/08/05 00:55:26;;;;;;;6.75;3.95;;;16.40;82.40;;;;;;5049538;28;20032;-83
2021/08/05 00:57:53;;;;;;;10.02;4.95;;;16.40;82.20;;;;;;5041240;28;20032;-83
2021/08/05 01:00:19;;;;;;;10.05;4.88;;;16.40;82.40;;;;;;5045847;28;20025;-81
2021/08/05 01:02:50;;;;;;;8.93;4.68;;;16.40;82.40;;;;;;5033138;28;20026;-83
2021/08/05 01:05:17;;;;;;;8.27;4.55;;;16.40;82.60;;;;;;5034133;28;20037;-81
2021/08/05 01:07:56;;;;;;;5.82;4.43;;;16.30;82.90;;;;;;5050858;28;20025;-84
2021/08/05 01:10:51;;;;;;;8.82;4.40;;;16.30;83.20;;;;;;5037635;28;20128;-83
2021/08/05 01:13:31;;;;;;;11.88;5.10;;;16.30;83.00;;;;;;5039444;28;20077;-83
2021/08/05 01:16:00;;;;;;;10.52;4.47;;;16.30;83.20;;;;;;5031489;28;20022;-83
2021/08/05 01:18:30;;;;;;;9.90;5.15;;;16.30;83.30;;;;;;5032009;28;20032;-84
2021/08/05 01:21:00;;;;;;;7.03;4.38;;;16.20;83.40;;;;;;5028312;28;20044;-83
2021/08/05 01:24:04;;;;;;;10.30;4.90;;;16.20;83.80;;;;;;5024187;28;20095;-82
2021/08/05 01:26:30;;;;;;;6.63;4.57;;;16.20;83.70;;;;;;4996936;28;20046;-82
2021/08/05 01:28:58;;;;;;;8.30;4.90;;;16.20;84.20;;;;;;5016460;28;20036;-81
2021/08/05 01:31:25;;;;;;;7.40;4.95;;;16.10;84.20;;;;;;5025516;28;20077;-82
2021/08/05 01:33:52;;;;;;;6.72;4.63;;;16.20;84.30;;;;;;5027302;28;20030;-82
2021/08/05 01:36:19;;;;;;;9.65;5.13;;;16.20;84.40;;;;;;5030971;28;20057;-82
2021/08/05 01:38:48;;;;;;;8.15;4.88;;;16.10;84.50;;;;;;5002264;28;20080;-82
2021/08/05 01:41:16;;;;;;;7.93;4.93;;;16.10;84.70;;;;;;5022633;28;20025;-82
2021/08/05 01:43:44;;;;;;;5.90;4.53;;;16.10;84.80;;;;;;5030430;28;20049;-83
2021/08/05 01:46:11;;;;;;;8.38;4.50;;;16.10;85.00;;;;;;5027141;28;20073;-82
2021/08/05 01:48:38;;;;;;;9.25;5.28;;;16.10;85.10;;;;;;5012364;28;20096;-82
2021/08/05 01:51:04;;;;;;;15.38;5.18;;;16.10;85.40;;;;;;5026882;28;20219;-82
2021/08/05 01:53:32;;;;;;;5.60;4.27;;;16.10;85.60;;;;;;4996304;28;20026;-84
2021/08/05 01:55:58;;;;;;;7.63;4.63;;;16.10;86.50;;;;;;5021728;28;20018;-84
2021/08/05 01:58:24;;;;;;;12.35;4.70;;;16.10;86.10;;;;;;5028138;28;20033;-84
2021/08/05 02:00:50;;;;;;;11.93;4.75;;;16.10;86.30;;;;;;5027327;28;20356;-83
2021/08/05 02:03:16;;;;;;;10.25;4.88;;;16.10;86.40;;;;;;5024037;28;20014;-82
2021/08/05 02:05:51;;;;;;;10.50;4.97;;;16.10;86.50;;;;;;5027275;28;20111;-84
2021/08/05 02:08:21;;;;;;;10.20;5.32;;;16.10;86.60;;;;;;5022440;28;20096;-84
2021/08/05 02:10:49;;;;;;;7.15;4.88;;;16.10;86.80;;;;;;5025945;28;20378;-83
2021/08/05 02:13:26;;;;;;;6.90;4.75;;;16.10;86.90;;;;;;5020539;28;20034;-83
2021/08/05 02:16:00;;;;;;;10.73;5.10;;;16.20;87.00;;;;;;5024793;28;20034;-82
2021/08/05 02:18:28;;;;;;;9.02;4.97;;;16.20;87.00;;;;;;5004752;28;20073;-84
2021/08/05 02:20:55;;;;;;;8.40;5.03;;;16.20;87.00;;;;;;5026431;28;20030;-83
2021/08/05 02:23:22;;;;;;;14.90;5.68;;;16.30;86.70;;;;;;5021934;28;20037;-83
2021/08/05 02:25:50;;;;;;;8.32;4.72;;;16.30;86.60;;;;;;5021308;28;20064;-83
2021/08/05 02:28:19;;;;;;;7.60;5.25;;;16.40;86.60;;;;;;5020870;28;20112;-83
2021/08/05 02:30:47;;;;;;;7.32;5.07;;;16.40;86.60;;;;;;5033188;28;20033;-83
2021/08/05 02:33:14;;;;;;;7.63;4.80;;;16.40;86.10;;;;;;5035682;28;20383;-84
2021/08/05 02:35:43;;;;;;;11.32;5.40;;;16.40;86.00;;;;;;5017636;28;20518;-83
2021/08/05 02:38:10;;;;;;;8.00;4.97;;;16.40;86.00;;;;;;5034643;28;20378;-83
2021/08/05 02:40:37;;;;;;;6.75;4.78;;;16.40;86.10;;;;;;5034216;28;20022;-82
2021/08/05 02:43:06;;;;;;;7.55;4.70;;;16.50;86.00;;;;;;5032723;28;20021;-83
2021/08/05 02:45:34;;;;;;;10.10;4.45;;;16.50;86.00;;;;;;5030907;28;20586;-83
2021/08/05 02:48:01;;;;;;;11.65;5.55;;;16.60;85.90;;;;;;5030837;28;20025;-83
2021/08/05 02:50:31;;;;;;;6.55;5.07;;;16.60;85.60;;;;;;5034041;28;20029;-84
2021/08/05 02:52:58;;;;;;;8.35;4.80;;;16.80;85.60;;;;;;5032477;28;20091;-83
2021/08/05 02:55:24;;;;;;;13.35;5.47;;;16.90;85.20;;;;;;5016094;28;20249;-84
2021/08/05 02:57:52;;;;;;;10.18;6.32;;;16.90;84.90;;;;;;5032529;28;20490;-84
2021/08/05 03:00:18;;;;;;;10.82;4.82;;;17.00;84.50;;;;;;5010002;28;20035;-81
2021/08/05 03:02:44;;;;;;;7.97;5.20;;;17.10;84.10;;;;;;5033257;28;20033;-82
2021/08/05 03:05:12;;;;;;;13.53;5.87;;;17.20;83.60;;;;;;5001679;28;20068;-81
2021/08/05 03:07:38;;;;;;;11.85;5.72;;;17.30;83.30;;;;;;5033966;28;20024;-84
2021/08/05 03:10:05;;;;;;;8.50;4.97;;;17.40;83.00;;;;;;5013756;28;20030;-83
2021/08/05 03:12:31;;;;;;;;;;;17.50;82.70;;;;;;5038123;28;20534;-82
2021/08/05 03:14:57;;;;;;;10.07;5.75;;;17.60;82.50;;;;;;5020726;28;19952;-83
2021/08/05 03:17:23;;;;;;;9.30;5.22;;;17.60;82.30;;;;;;5035149;28;20540;-83
2021/08/05 03:19:49;;;;;;;9.48;5.57;;;17.70;82.00;;;;;;5047224;28;20027;-82
2021/08/05 03:22:15;;;;;;;10.75;5.28;;;17.80;81.70;;;;;;5052141;28;20017;-83
2021/08/05 03:24:43;;;;;;;9.82;5.03;;;17.90;81.00;;;;;;5045783;28;20057;-82
2021/08/05 03:27:10;;;;;;;11.93;5.68;;;18.10;80.50;;;;;;5034968;28;20017;-83
2021/08/05 03:29:37;;;;;;;10.35;5.30;;;18.20;79.80;;;;;;5040333;28;20032;-84
2021/08/05 03:32:04;;;;;;;8.03;5.27;;;18.30;79.30;;;;;;5039376;28;20029;-83
2021/08/05 03:34:29;;;;;;;10.77;5.57;;;18.40;79.10;;;;;;5052508;28;20021;-84
2021/08/05 03:36:55;;;;;;;11.40;5.28;;;18.40;78.40;;;;;;5054842;28;20029;-84
2021/08/05 03:39:21;;;;;;;10.98;5.90;;;18.50;78.20;;;;;;5054699;28;20063;-84
2021/08/05 03:41:48;;;;;;;8.55;6.38;;;18.50;78.00;;;;;;5054981;28;20017;-84
2021/08/05 03:44:14;;;;;;;13.73;6.18;;;18.50;77.50;;;;;;5042498;28;20029;-82
2021/08/05 03:46:40;;;;;;;9.43;5.53;;;18.50;77.10;;;;;;5063404;28;20035;-81
2021/08/05 03:49:06;;;;;;;9.13;6.07;;;18.60;77.40;;;;;;5070990;28;20031;-83
2021/08/05 03:51:32;;;;;;;20.60;6.40;;;18.60;77.30;;;;;;5054547;28;20017;-83
2021/08/05 03:53:58;;;;;;;12.60;6.53;;;18.70;77.10;;;;;;5053281;28;20494;-83
2021/08/05 03:56:24;;;;;;;11.32;6.28;;;18.80;77.30;;;;;;5054077;28;20028;-83
2021/08/05 03:58:50;;;;;;;9.40;5.40;;;18.90;76.20;;;;;;5046642;28;20501;-83
2021/08/05 04:01:16;;;;;;;14.30;6.30;;;19.00;76.50;;;;;;5048337;28;20063;-83
2021/08/05 04:03:42;;;;;;;11.05;5.25;;;19.00;75.20;;;;;;5048032;28;20540;-83
2021/08/05 04:06:08;;;;;;;9.25;3.72;;;19.10;74.70;;;;;;5045927;28;20029;-84
2021/08/05 04:08:35;;;;;;;6.35;5.05;;;19.20;74.50;;;;;;5054122;28;20390;-83
2021/08/05 04:11:01;;;;;;;8.57;5.07;;;19.30;72.80;;;;;;5055464;28;20036;-85
2021/08/05 04:13:27;;;;;;;7.93;5.15;;;19.10;72.20;;;;;;5059729;28;20068;-85
2021/08/05 04:15:53;;;;;;;6.35;4.93;;;19.20;72.60;;;;;;5037875;28;20083;-85
2021/08/05 04:18:19;;;;;;;6.35;5.10;;;19.30;72.40;;;;;;5040647;28;20025;-83
2021/08/05 04:20:45;;;;;;;7.03;4.50;;;19.40;72.20;;;;;;5042695;28;20109;-83
2021/08/05 04:23:11;;;;;;;6.82;3.78;;;19.50;71.80;;;;;;5026592;28;20379;-83
2021/08/05 04:25:37;;;;;;;7.20;4.57;;;19.60;71.00;;;;;;5040394;28;20033;-84
2021/08/05 04:28:03;;;;;;;6.80;4.20;;;19.60;70.80;;;;;;5033813;28;20467;-84
2021/08/05 04:30:30;;;;;;;8.18;4.18;;;19.70;70.40;;;;;;5043409;28;20113;-84
2021/08/05 04:32:55;;;;;;;8.02;5.60;;;19.90;70.00;;;;;;5047596;28;20483;-84
2021/08/05 04:35:21;;;;;;;9.77;4.05;;;19.90;69.60;;;;;;5044215;28;20075;-83
2021/08/05 04:37:52;;;;;;;4.60;3.15;;;20.10;69.30;;;;;;5039164;28;20049;-82
2021/08/05 04:40:18;;;;;;;8.73;3.92;;;20.10;68.50;;;;;;5052551;28;20500;-82
2021/08/05 04:42:45;;;;;;;8.93;4.28;;;20.20;68.40;;;;;;5053106;28;20025;-83
2021/08/05 04:45:12;;;;;;;11.40;5.07;;;20.10;67.90;;;;;;5052872;28;20025;-83
2021/08/05 04:47:56;;;;;;;;;;;20.10;68.00;;;;;;5055194;28;20025;-81
2021/08/05 04:50:24;;;;;;;12.95;7.75;;;20.10;68.30;;;;;;5048274;28;19950;-83
2021/08/05 04:52:50;;;;;;;14.13;6.15;;;20.10;68.30;;;;;;5029264;28;20021;-82
2021/08/05 04:55:16;;;;;;;12.38;5.47;;;20.10;68.60;;;;;;5038796;28;20052;-84
2021/08/05 04:58:02;;;;;;;8.48;5.28;;;20.30;67.90;;;;;;5033482;28;20045;-83
2021/08/05 05:00:30;;;;;;;10.63;5.63;;;20.90;66.60;;;;;;5019218;28;20044;-83
2021/08/05 05:02:57;;;;;;;11.30;7.13;;;21.60;64.00;;;;;;5035214;28;20056;-83
2021/08/05 05:05:26;;;;;;;12.25;6.43;;;22.60;61.70;;;;;;5035806;28;20033;-84
2021/08/05 05:07:52;;;;;;;15.70;7.25;;;23.50;59.50;;;;;;5035454;28;20036;-83
2021/08/05 05:10:19;;;;;;;15.77;7.60;;;24.40;57.00;;;;;;5044265;28;20104;-84
2021/08/05 05:12:45;;;;;;;13.93;6.63;;;25.30;54.50;;;;;;5031451;28;20054;-82
2021/08/05 05:15:12;;;;;;;12.85;6.63;;;26.00;52.50;;;;;;5021771;28;20419;-84
2021/08/05 05:17:40;;;;;;;15.73;7.10;;;26.40;50.80;;;;;;5004326;28;20398;-85
2021/08/05 05:20:07;;;;;;;11.35;6.95;;;27.00;49.40;;;;;;5017602;28;20030;-83
2021/08/05 05:22:34;;;;;;;12.25;7.50;;;27.40;47.60;;;;;;5016762;28;20058;-84
2021/08/05 05:25:01;;;;;;;14.18;7.35;;;27.70;46.30;;;;;;5015058;28;20055;-84
2021/08/05 05:27:27;;;;;;;11.65;6.00;;;;;;;;;;5015870;28;20018;-84
2021/08/05 05:29:59;;;;;;;12.13;6.88;;;;;;;;;;5005370;28;20032;-80
2021/08/05 05:32:26;;;;;;;13.10;6.00;;;;;;;;;;4998195;28;20057;-83
2021/08/05 05:34:52;;;;;;;13.32;6.50;;;;;;;;;;5012231;28;20379;-86
2021/08/05 05:37:21;;;;;;;20.90;7.05;;;;;;;;;;5004509;28;20022;-85
2021/08/05 05:39:48;;;;;;;14.80;6.85;;;28.10;46.00;;;;;;5024517;28;20098;-83
2021/08/05 05:42:14;;;;;;;;;;;29.80;43.40;;;;;;5021157;28;20029;-85
2021/08/05 05:44:40;;;;;;;8.53;5.37;;;29.70;44.60;;;;;;4997120;28;20282;-86
2021/08/05 05:47:06;;;;;;;9.32;5.25;;;29.90;42.50;;;;;;5001577;28;20088;-83
2021/08/05 05:49:32;;;;;;;12.32;5.70;;;;;;;;;;4989477;28;20435;-86
2021/08/05 05:51:58;;;;;;;10.23;5.57;;;30.00;41.90;;;;;;5015982;28;20075;-87
2021/08/05 05:54:24;;;;;;;10.68;5.03;;;31.20;40.50;;;;;;5026286;28;20101;-84
2021/08/05 05:56:50;;;;;;;12.13;5.30;;;31.50;39.30;;;;;;5031649;28;20028;-83
2021/08/05 05:59:17;;;;;;;10.95;4.70;;;31.60;38.40;;;;;;5009154;28;20715;-83
2021/08/05 06:01:43;;;;;;;10.10;5.60;;;32.20;38.20;;;;;;5019352;28;20021;-83
2021/08/05 06:04:08;;;;;;;8.55;5.05;;;33.10;37.70;;;;;;5024389;28;20050;-82
2021/08/05 06:06:34;;;;;;;7.90;4.43;;;34.10;37.30;;;;;;5035975;28;20026;-85
2021/08/05 06:09:02;;;;;;;8.27;4.10;;;35.10;36.00;;;;;;5022572;28;20098;-84
2021/08/05 06:11:28;;;;;;;9.57;5.13;;;;;;;;;;5018298;28;20028;-83
2021/08/05 06:13:54;;;;;;;6.55;3.70;;;35.20;33.60;;;;;;5034217;28;20046;-86
2021/08/05 06:16:21;;;;;;;10.15;3.67;;;34.90;34.40;;;;;;5036935;28;20029;-84
2021/08/05 06:18:47;;;;;;;6.18;3.75;;;35.30;34.60;;;;;;5036315;28;20037;-85
2021/08/05 06:21:13;;;;;;;12.30;3.40;;;35.60;33.70;;;;;;5040531;28;20022;-84
2021/08/05 06:23:39;;;;;;;4.67;2.67;;;35.80;32.40;;;;;;5037979;28;20029;-83
2021/08/05 06:26:05;;;;;;;8.37;3.80;;;35.10;32.90;;;;;;5036352;28;20073;-84
2021/08/05 06:28:33;;;;;;;3.83;2.60;;;34.50;33.20;;;;;;5018498;28;20091;-83
2021/08/05 06:30:59;;;;;;;5.18;3.70;;;34.50;32.50;;;;;;5048471;28;20026;-84
2021/08/05 06:33:25;;;;;;;9.05;3.33;;;34.70;33.00;;;;;;5056357;28;20051;-83
2021/08/05 06:35:51;;;;;;;8.37;3.30;;;35.90;32.10;;;;;;5056270;28;20028;-84
2021/08/05 06:38:17;;;;;;;7.97;3.70;;;37.00;32.00;;;;;;5038053;28;20029;-85
2021/08/05 06:40:43;;;;;;;4.45;3.85;;;37.80;31.00;;;;;;5056316;28;20047;-87
2021/08/05 06:43:09;;;;;;;6.40;4.68;;;38.30;30.10;;;;;;5037022;28;20017;-84
2021/08/05 06:45:35;;;;;;;8.85;4.53;;;38.50;30.00;;;;;;5046246;28;20044;-85
2021/08/05 06:48:01;;;;;;;12.52;6.30;;;38.60;30.10;;;;;;5034522;28;20483;-84
2021/08/05 06:50:27;;;;;;;11.38;6.28;;;38.90;29.90;;;;;;5044317;28;20068;-84
2021/08/05 06:52:54;;;;;;;12.48;5.43;;;36.80;30.20;;;;;;5055398;28;20403;-83
2021/08/05 06:55:20;;;;;;;16.25;6.57;;;35.10;32.50;;;;;;5043164;28;20039;-85
2021/08/05 06:57:46;;;;;;;8.75;5.00;;;35.40;32.90;;;;;;5042544;28;20029;-83
2021/08/05 07:00:12;;;;;;;11.40;5.70;;;35.80;31.80;;;;;;5055022;28;20465;-86
2021/08/05 07:02:38;;;;;;;16.30;5.53;;;35.20;31.70;;;;;;5056674;28;20021;-86
2021/08/05 07:05:09;;;;;;;10.67;4.70;;;36.10;31.50;;;;;;5057970;28;20029;-85
2021/08/05 07:07:35;;;;;;;10.43;4.88;;;35.90;31.10;;;;;;5057289;28;20025;-84
2021/08/05 07:10:02;;;;;;;16.90;4.18;;;34.80;31.30;;;;;;5056379;28;20108;-85
2021/08/05 07:12:28;;;;;;;9.75;4.30;;;34.00;32.10;;;;;;5055752;28;20051;-84
2021/08/05 07:14:54;;;;;;;;;;;34.80;32.10;;;;;;5056055;28;20036;-84
2021/08/05 07:17:20;;;;;;;8.10;4.05;;;35.90;32.20;;;;;;5041836;28;19904;-85
2021/08/05 07:19:46;;;;;;;5.93;3.92;;;37.20;30.20;;;;;;5055124;28;20070;-84
2021/08/05 07:22:12;;;;;;;8.70;3.92;;;38.50;29.30;;;;;;5050796;28;20548;-85
2021/08/05 07:24:38;;;;;;;9.30;4.40;;;39.00;28.70;;;;;;5035521;28;20119;-85
2021/08/05 07:27:05;;;;;;;16.23;4.70;;;39.50;28.50;;;;;;5051429;28;20470;-84
2021/08/05 07:29:32;;;;;;;11.35;3.88;;;40.20;28.40;;;;;;5050943;28;20021;-85
2021/08/05 07:32:03;;;;;;;5.70;3.47;;;41.00;28.10;;;;;;5050418;28;20021;-86
2021/08/05 07:34:33;;;;;;;7.53;3.78;;;41.60;27.80;;;;;;5054916;28;20118;-84
2021/08/05 07:37:00;;;;;;;9.85;4.20;;;41.70;27.30;;;;;;5054619;28;20021;-85
2021/08/05 07:39:26;;;;;;;8.48;5.43;;;41.10;27.60;;;;;;5054446;28;20478;-84
2021/08/05 07:41:52;;;;;;;19.45;5.78;;;40.10;27.90;;;;;;5055775;28;20051;-84
2021/08/05 07:44:18;;;;;;;15.98;4.50;;;39.00;29.00;;;;;;5042360;28;20398;-85
2021/08/05 07:46:44;;;;;;;8.05;3.88;;;38.20;29.50;;;;;;5041231;28;20021;-85
2021/08/05 07:49:11;;;;;;;9.43;4.35;;;37.50;29.70;;;;;;5050166;28;20029;-85
2021/08/05 07:51:37;;;;;;;10.02;3.85;;;36.90;30.10;;;;;;5054304;28;20082;-85
2021/08/05 07:54:04;;;;;;;15.35;4.13;;;36.30;30.60;;;;;;5056895;28;20066;-84
2021/08/05 07:56:29;;;;;;;;;;;36.30;30.90;;;;;;5055689;28;20455;-84
2021/08/05 07:58:55;;;;;;;7.45;3.67;;;36.10;32.00;;;;;;5055259;28;19966;-85
2021/08/05 08:01:21;;;;;;;10.67;3.93;;;35.80;31.50;;;;;;5054213;28;20040;-86
2021/08/05 08:03:47;;;;;;;9.25;3.78;;;36.10;31.40;;;;;;5029977;28;20270;-86
2021/08/05 08:06:13;;;;;;;7.28;4.05;;;36.20;31.20;;;;;;5046787;28;20041;-84
2021/08/05 08:08:39;;;;;;;7.28;4.32;;;36.40;31.20;;;;;;5049999;28;20049;-83
2021/08/05 08:11:05;;;;;;;6.20;3.40;;;36.10;30.90;;;;;;5047458;28;20025;-85
2021/08/05 08:13:31;;;;;;;7.20;3.37;;;35.60;30.90;;;;;;5055132;28;20269;-83
2021/08/05 08:15:58;;;;;;;8.18;3.75;;;34.70;31.60;;;;;;5059767;28;20423;-84
2021/08/05 08:18:24;;;;;;;6.95;3.55;;;33.80;33.00;;;;;;5057330;28;20068;-84
2021/08/05 08:20:50;;;;;;;7.60;3.58;;;32.70;33.90;;;;;;5054858;28;20056;-83
2021/08/05 08:23:17;;;;;;;7.25;3.85;;;31.30;35.10;;;;;;5056487;28;20029;-84
2021/08/05 08:25:43;;;;;;;4.80;3.13;;;30.50;36.30;;;;;;5061244;28;20060;-82
2021/08/05 08:28:09;;;;;;;8.82;3.08;;;30.10;37.20;;;;;;5058886;28;20051;-85
2021/08/05 08:30:35;;;;;;;;;;;30.80;36.90;;;;;;5033039;28;20386;-85
2021/08/05 08:33:01;;;;;;;7.10;2.53;;;31.50;36.30;;;;;;5039544;28;19905;-85
2021/08/05 08:35:27;;;;;;;8.45;3.65;;;32.40;35.20;;;;;;5054187;28;20687;-84
2021/08/05 08:37:53;;;;;;;8.27;3.37;;;33.10;34.70;;;;;;5053869;28;20088;-84
2021/08/05 08:40:20;;;;;;;7.67;3.63;;;34.30;34.00;;;;;;5054436;28;20057;-84
2021/08/05 08:42:45;;;;;;;5.30;2.88;;;37.00;32.50;;;;;;5053611;28;20028;-85
2021/08/05 08:45:13;;;;;;;8.20;3.80;;;37.10;31.00;;;;;;5035609;28;20124;-86
2021/08/05 08:47:41;;;;;;;5.88;3.75;;;36.50;30.60;;;;;;5051322;28;20029;-83
2021/08/05 08:50:08;;;;;;;6.97;4.15;;;36.50;30.90;;;;;;5027373;28;20020;-84
2021/08/05 08:52:35;;;;;;;;;;;36.80;30.60;;;;;;5057479;28;20021;-83
2021/08/05 08:55:03;;;;;;;8.13;3.03;;;37.40;31.60;;;;;;5049332;28;19960;-84
2021/08/05 08:57:31;;;;;;;7.50;3.10;;;38.50;29.90;;;;;;5045176;28;20070;-85
2021/08/05 08:59:58;;;;;;;6.05;2.88;;;39.10;29.20;;;;;;5053119;28;20029;-84
2021/08/05 09:02:25;;;;;;;8.15;2.95;;;37.50;28.60;;;;;;5035257;28;20020;-83
2021/08/05 09:04:53;;;;;;;5.95;2.85;;;36.10;30.20;;;;;;5052743;28;20115;-85
2021/08/05 09:07:23;;;;;;;5.80;2.72;;;36.70;30.80;;;;;;5035346;28;20479;-86
2021/08/05 09:09:50;;;;;;;3.97;2.83;;;37.40;30.60;;;;;;5053795;28;20029;-87
2021/08/05 09:12:16;;;;;;;8.65;3.83;;;38.30;29.70;;;;;;5053553;28;20363;-84
2021/08/05 09:14:49;;;;;;;5.82;3.05;;;38.70;29.50;;;;;;5041638;28;20045;-86
2021/08/05 09:17:22;;;;;;;5.95;3.38;;;37.90;29.40;;;;;;5040082;28;20013;-86
2021/08/05 09:19:52;;;;;;;8.00;3.83;;;37.00;29.90;;;;;;5041822;28;20052;-84
2021/08/05 09:22:31;;;;;;;6.72;2.47;;;36.70;30.30;;;;;;5048924;28;20010;-86
2021/08/05 09:24:57;;;;;;;4.15;2.50;;;36.20;30.20;;;;;;5034765;28;20043;-86
2021/08/05 09:27:33;;;;;;;6.03;3.80;;;35.50;30.70;;;;;;5054150;28;20076;-85
2021/08/05 09:29:59;;;;;;;5.95;2.63;;;34.70;32.20;;;;;;5047331;28;20052;-84
2021/08/05 09:32:26;;;;;;;;;;;34.90;32.20;;;;;;5050593;28;20071;-86
2021/08/05 09:35:07;;;;;;;6.72;3.10;;;35.50;32.30;;;;;;5053956;28;19904;-85
2021/08/05 09:37:38;;;;;;;6.70;2.67;;;36.00;31.50;;;;;;5053326;28;20025;-84
2021/08/05 09:40:15;;;;;;;3.88;2.60;;;36.20;31.40;;;;;;5037400;28;20111;-84
2021/08/05 09:42:53;;;;;;;3.80;2.70;;;35.30;30.70;;;;;;5057450;28;20580;-84
2021/08/05 09:45:33;;;;;;;5.40;2.55;;;34.20;32.70;;;;;;5032104;28;20406;-85
2021/08/05 09:47:59;;;;;;;4.95;2.72;;;33.70;32.60;;;;;;5050400;28;20024;-86
2021/08/05 09:50:26;;;;;;;4.67;2.47;;;31.80;34.10;;;;;;5053493;28;20112;-86
2021/08/05 09:53:05;;;;;;;4.72;3.33;;;30.10;36.50;;;;;;5054305;28;20611;-85
2021/08/05 09:55:31;;;;;;;5.85;3.10;;;29.70;37.80;;;;;;5039550;28;20036;-86
2021/08/05 09:57:57;;;;;;;4.70;2.22;;;29.70;38.00;;;;;;5044021;28;20021;-84
2021/08/05 10:00:23;;;;;;;4.57;2.45;;;30.00;36.10;;;;;;5057846;28;20021;-83
2021/08/05 10:02:50;;;;;;;4.80;2.55;;;30.00;36.10;;;;;;5035516;28;20504;-86
2021/08/05 10:05:21;;;;;;;3.47;2.45;;;30.10;36.40;;;;;;5052266;28;20029;-86
2021/08/05 10:07:48;;;;;;;6.53;2.38;;;29.80;36.70;;;;;;5052762;28;20029;-83
2021/08/05 10:10:16;;;;;;;6.20;3.30;;;29.20;37.20;;;;;;5053022;28;20032;-84
2021/08/05 10:12:54;;;;;;;5.75;2.75;;;29.10;38.20;;;;;;5034530;28;20053;-84
2021/08/05 10:15:21;;;;;;;3.47;2.00;;;28.70;38.20;;;;;;5052771;28;20039;-84
2021/08/05 10:18:00;;;;;;;3.42;2.20;;;27.80;39.30;;;;;;5052646;28;20021;-87
2021/08/05 10:20:27;;;;;;;8.15;2.72;;;;;;;;;;5052747;28;20025;-84
2021/08/05 10:22:58;;;;;;;5.97;2.83;;;26.90;41.00;;;;;;5053753;28;20024;-84
2021/08/05 10:25:25;;;;;;;8.30;3.97;;;26.50;42.50;;;;;;5035931;28;20377;-85
2021/08/05 10:27:53;;;;;;;3.60;2.60;;;26.50;43.10;;;;;;5041364;28;20040;-85
2021/08/05 10:30:20;;;;;;;8.15;3.50;;;26.60;43.00;;;;;;5050852;28;20155;-85
2021/08/05 10:32:47;;;;;;;3.80;2.90;;;26.70;42.70;;;;;;5050162;28;20136;-86
2021/08/05 10:35:14;;;;;;;;;;;26.70;42.50;;;;;;5053706;28;20021;-85
2021/08/05 10:37:41;;;;;;;3.78;2.55;;;26.50;41.80;;;;;;5053791;28;19908;-84
2021/08/05 10:40:10;;;;;;;3.92;2.50;;;26.40;42.80;;;;;;5038788;28;20079;-86
2021/08/05 10:42:36;;;;;;;5.90;2.47;;;26.00;43.20;;;;;;5056937;28;20486;-84
2021/08/05 10:45:03;;;;;;;2.70;2.00;;;25.70;44.60;;;;;;5040431;28;20068;-85
2021/08/05 10:47:31;;;;;;;5.38;2.35;;;25.70;44.30;;;;;;5049160;28;20347;-86
2021/08/05 10:50:09;;;;;;;8.27;5.80;;;25.50;44.90;;;;;;5046622;28;20052;-83
2021/08/05 10:52:35;;;;;;;3.35;2.40;;;25.50;44.90;;;;;;5038248;28;20111;-85
2021/08/05 10:55:20;;;;;;;6.80;2.60;;;25.30;44.30;;;;;;5042409;28;20033;-86
2021/08/05 10:58:07;;;;;;;3.92;2.30;;;25.00;44.70;;;;;;5057262;28;20027;-86
2021/08/05 11:00:52;;;;;;;5.30;2.88;;;25.10;45.20;;;;;;5045203;28;20036;-84
2021/08/05 11:03:33;;;;;;;4.65;2.60;;;25.00;45.10;;;;;;5053523;28;20029;-84
2021/08/05 11:06:04;;;;;;;5.03;3.30;;;24.90;45.30;;;;;;5035464;28;20044;-85
2021/08/05 11:08:30;;;;;;;5.72;2.20;;;24.80;47.50;;;;;;5038727;28;20017;-87
2021/08/05 11:11:32;;;;;;;6.85;3.22;;;24.60;48.10;;;;;;5048964;28;20040;-84
2021/08/05 11:14:05;;;;;;;5.35;2.65;;;24.30;48.50;;;;;;4959915;29;20055;-85
2021/08/05 11:17:05;;;;;;;4.03;2.92;;;24.10;50.70;;;;;;4956194;29;20035;-86
2021/08/05 11:19:35;;;;;;;7.18;2.95;;;23.80;52.10;;;;;;4955628;29;20385;-84
2021/08/05 11:22:29;;;;;;;6.35;2.97;;;23.40;52.10;;;;;;4953208;29;20503;-86
2021/08/05 11:24:55;;;;;;;5.47;2.70;;;23.20;53.60;;;;;;4937277;29;20043;-85
2021/08/05 11:27:22;;;;;;;6.63;3.05;;;23.10;54.60;;;;;;4950169;29;20019;-83
2021/08/05 11:29:48;;;;;;;7.28;3.35;;;23.00;56.10;;;;;;4971015;29;20104;-84
2021/08/05 11:32:26;;;;;;;4.97;2.87;;;23.00;56.10;;;;;;4947213;29;20028;-85
2021/08/05 11:34:57;;;;;;;6.85;3.15;;;23.10;57.30;;;;;;4916716;29;20060;-85
2021/08/05 11:37:23;;;;;;;5.72;3.22;;;23.20;56.90;;;;;;4916590;29;20063;-86
2021/08/05 11:39:53;;;;;;;5.13;2.75;;;23.30;56.30;;;;;;4900356;29;20032;-83
2021/08/05 11:42:23;;;;;;;7.68;4.20;;;23.30;53.20;;;;;;4900394;29;20036;-85
2021/08/05 11:44:59;;;;;;;6.30;3.03;;;23.30;54.50;;;;;;4915798;29;20451;-84
2021/08/05 11:47:39;;;;;;;5.97;2.33;;;23.30;53.30;;;;;;4950309;28;20089;-87
2021/08/05 11:50:11;;;;;;;5.00;2.20;;;23.10;53.50;;;;;;5012260;28;20033;-84
2021/08/05 11:52:39;;;;;;;10.55;4.38;;;23.00;53.60;;;;;;5012534;28;20022;-85
2021/08/05 11:55:11;;;;;;;8.93;4.18;;;22.80;54.70;;;;;;5007386;28;20088;-84
2021/08/05 11:58:03;;;;;;;6.80;4.03;;;22.90;55.30;;;;;;4990141;28;20026;-85
2021/08/05 12:00:35;;;;;;;10.48;4.15;;;23.20;54.90;;;;;;4993538;28;20388;-86
2021/08/05 12:03:11;;;;;;;10.98;5.28;;;23.30;55.10;;;;;;5012762;28;20036;-83
2021/08/05 12:05:49;;;;;;;8.38;3.97;;;23.60;55.10;;;;;;5001484;28;20042;-86
2021/08/05 12:08:20;;;;;;;10.25;4.95;;;23.70;54.60;;;;;;5030973;28;20089;-84
2021/08/05 12:10:46;;;;;;;10.02;3.65;;;23.80;54.10;;;;;;5028350;28;20513;-84
2021/08/05 12:13:20;;;;;;;11.95;3.50;;;23.90;53.20;;;;;;5036040;28;20132;-86
2021/08/05 12:15:50;;;;;;;6.90;4.25;;;24.00;53.60;;;;;;5054538;28;20025;-85
2021/08/05 12:18:20;;;;;;;6.95;4.85;;;24.10;53.80;;;;;;5054107;28;20453;-85
2021/08/05 12:21:01;;;;;;;7.43;2.90;;;24.20;53.10;;;;;;5048817;28;20036;-85
2021/08/05 12:23:33;;;;;;;4.25;2.63;;;24.10;50.00;;;;;;5030784;28;20403;-86
2021/08/05 12:26:12;;;;;;;4.32;2.42;;;23.70;50.20;;;;;;5054267;28;20115;-88
2021/08/05 12:28:42;;;;;;;6.28;2.80;;;23.50;49.90;;;;;;5036607;28;20048;-84
2021/08/05 12:31:09;;;;;;;6.85;2.55;;;23.30;50.20;;;;;;5039288;28;20021;-84
2021/08/05 12:33:40;;;;;;;6.32;3.10;;;23.20;50.40;;;;;;5038135;28;20017;-84
2021/08/05 12:36:21;;;;;;;4.47;2.80;;;23.20;50.40;;;;;;5030863;28;20047;-84
2021/08/05 12:39:08;;;;;;;6.50;3.05;;;23.30;50.30;;;;;;5045439;28;20048;-84
2021/08/05 12:41:49;;;;;;;6.13;2.72;;;23.40;51.30;;;;;;5040490;28;20074;-85
2021/08/05 12:44:20;;;;;;;4.55;2.75;;;23.50;50.50;;;;;;5054184;28;20025;-85
2021/08/05 12:46:56;;;;;;;7.60;3.75;;;23.50;50.20;;;;;;5035001;28;20082;-87
2021/08/05 12:49:39;;;;;;;9.23;3.72;;;23.50;50.50;;;;;;5048214;28;20025;-85
2021/08/05 12:52:06;;;;;;;12.98;3.78;;;23.70;50.60;;;;;;5034411;28;20033;-87
2021/08/05 12:54:34;;;;;;;14.07;7.72;;;24.00;50.20;;;;;;5031882;28;20016;-85
2021/08/05 12:57:10;;;;;;;12.82;5.10;;;24.40;50.20;;;;;;5048417;28;20030;-85